sensor_id;sensor_type;location;lat;lon;timestamp;P1;durP1;ratioP1;P2;durP2;ratioP2
19278;SDS011;9773;47.062;15.446;2023-02-13T00:02:08;4.63;;;3.87;;
19278;SDS011;9773;47.062;15.446;2023-02-13T00:04:34;3.73;;;3.33;;
19278;SDS011;9773;47.062;15.446;2023-02-13T00:07:00;4.93;;;4.13;;
19278;SDS011;9773;47.062;15.446;2023-02-13T00:09:26;5.50;;;3.70;;
19278;SDS011;9773;47.062;15.446;2023-02-13T00:11:52;4.70;;;4.03;;
19278;SDS011;9773;47.062;15.446;2023-02-13T00:14:17;4.13;;;3.73;;
19278;SDS011;9773;47.062;15.446;2023-02-13T00:16:43;5.63;;;3.73;;
19278;SDS011;9773;47.062;15.446;2023-02-13T00:19:09;5.47;;;4.10;;
19278;SDS011;9773;47.062;15.446;2023-02-13T00:21:35;3.90;;;3.60;;
19278;SDS011;9773;47.062;15.446;2023-02-13T00:24:00;5.43;;;3.20;;
19278;SDS011;9773;47.062;15.446;2023-02-13T00:26:26;5.37;;;3.60;;
19278;SDS011;9773;47.062;15.446;2023-02-13T00:28:52;4.10;;;3.70;;
19278;SDS011;9773;47.062;15.446;2023-02-13T00:31:18;4.70;;;3.13;;
19278;SDS011;9773;47.062;15.446;2023-02-13T00:33:45;4.50;;;3.40;;
19278;SDS011;9773;47.062;15.446;2023-02-13T00:36:12;4.13;;;3.73;;
19278;SDS011;9773;47.062;15.446;2023-02-13T00:38:43;3.70;;;3.40;;
19278;SDS011;9773;47.062;15.446;2023-02-13T00:41:10;4.57;;;3.43;;
19278;SDS011;9773;47.062;15.446;2023-02-13T00:43:37;3.90;;;3.30;;
19278;SDS011;9773;47.062;15.446;2023-02-13T00:46:03;3.50;;;2.90;;
19278;SDS011;9773;47.062;15.446;2023-02-13T00:48:29;3.60;;;3.30;;
19278;SDS011;9773;47.062;15.446;2023-02-13T00:50:56;3.63;;;3.33;;
19278;SDS011;9773;47.062;15.446;2023-02-13T00:53:23;3.97;;;3.67;;
19278;SDS011;9773;47.062;15.446;2023-02-13T00:55:50;3.53;;;3.30;;
19278;SDS011;9773;47.062;15.446;2023-02-13T00:58:16;3.80;;;3.33;;
19278;SDS011;9773;47.062;15.446;2023-02-13T01:00:43;3.03;;;2.73;;
19278;SDS011;9773;47.062;15.446;2023-02-13T01:03:11;4.07;;;3.03;;
19278;SDS011;9773;47.062;15.446;2023-02-13T01:05:38;3.37;;;3.07;;
19278;SDS011;9773;47.062;15.446;2023-02-13T01:08:04;3.10;;;2.90;;
19278;SDS011;9773;47.062;15.446;2023-02-13T01:10:30;3.30;;;3.00;;
19278;SDS011;9773;47.062;15.446;2023-02-13T01:12:56;4.03;;;3.60;;
19278;SDS011;9773;47.062;15.446;2023-02-13T01:15:22;3.67;;;3.33;;
19278;SDS011;9773;47.062;15.446;2023-02-13T01:17:48;3.70;;;3.00;;
19278;SDS011;9773;47.062;15.446;2023-02-13T01:20:14;3.80;;;3.50;;
19278;SDS011;9773;47.062;15.446;2023-02-13T01:22:40;3.43;;;3.00;;
19278;SDS011;9773;47.062;15.446;2023-02-13T01:25:08;3.77;;;3.47;;
19278;SDS011;9773;47.062;15.446;2023-02-13T01:27:34;3.10;;;2.87;;
19278;SDS011;9773;47.062;15.446;2023-02-13T01:30:02;4.00;;;2.97;;
19278;SDS011;9773;47.062;15.446;2023-02-13T01:32:35;3.73;;;3.43;;
19278;SDS011;9773;47.062;15.446;2023-02-13T01:35:02;3.10;;;2.90;;
19278;SDS011;9773;47.062;15.446;2023-02-13T01:37:28;3.53;;;3.30;;
19278;SDS011;9773;47.062;15.446;2023-02-13T01:39:54;5.63;;;3.50;;
19278;SDS011;9773;47.062;15.446;2023-02-13T01:42:24;3.00;;;2.60;;
19278;SDS011;9773;47.062;15.446;2023-02-13T01:44:52;3.60;;;3.30;;
19278;SDS011;9773;47.062;15.446;2023-02-13T01:49:54;3.33;;;3.10;;
19278;SDS011;9773;47.062;15.446;2023-02-13T01:52:49;3.63;;;3.33;;
19278;SDS011;9773;47.062;15.446;2023-02-13T01:55:23;5.27;;;3.00;;
19278;SDS011;9773;47.062;15.446;2023-02-13T01:57:53;3.47;;;3.17;;
19278;SDS011;9773;47.062;15.446;2023-02-13T02:00:25;3.07;;;2.87;;
19278;SDS011;9773;47.062;15.446;2023-02-13T02:02:52;3.20;;;3.00;;
19278;SDS011;9773;47.062;15.446;2023-02-13T02:05:23;4.00;;;3.50;;
19278;SDS011;9773;47.062;15.446;2023-02-13T02:07:53;3.30;;;3.00;;
19278;SDS011;9773;47.062;15.446;2023-02-13T02:10:21;3.07;;;2.80;;
19278;SDS011;9773;47.062;15.446;2023-02-13T02:15:41;2.77;;;2.57;;
19278;SDS011;9773;47.062;15.446;2023-02-13T02:18:14;3.73;;;3.03;;
19278;SDS011;9773;47.062;15.446;2023-02-13T02:23:32;3.00;;;2.70;;
19278;SDS011;9773;47.062;15.446;2023-02-13T02:26:16;3.00;;;2.80;;
19278;SDS011;9773;47.062;15.446;2023-02-13T02:48:06;3.20;;;2.90;;
19278;SDS011;9773;47.062;15.446;2023-02-13T02:53:54;2.80;;;2.60;;
19278;SDS011;9773;47.062;15.446;2023-02-13T02:56:55;2.93;;;2.73;;
19278;SDS011;9773;47.062;15.446;2023-02-13T02:59:24;2.90;;;2.70;;
19278;SDS011;9773;47.062;15.446;2023-02-13T03:02:11;3.10;;;2.90;;
19278;SDS011;9773;47.062;15.446;2023-02-13T03:04:57;3.27;;;3.00;;
19278;SDS011;9773;47.062;15.446;2023-02-13T03:07:43;2.97;;;2.77;;
19278;SDS011;9773;47.062;15.446;2023-02-13T03:10:11;3.13;;;2.83;;
19278;SDS011;9773;47.062;15.446;2023-02-13T03:13:02;4.53;;;2.70;;
19278;SDS011;9773;47.062;15.446;2023-02-13T03:15:48;3.00;;;2.80;;
19278;SDS011;9773;47.062;15.446;2023-02-13T03:18:35;3.30;;;3.00;;
19278;SDS011;9773;47.062;15.446;2023-02-13T03:24:42;2.80;;;2.50;;
19278;SDS011;9773;47.062;15.446;2023-02-13T03:39:25;3.53;;;2.60;;
19278;SDS011;9773;47.062;15.446;2023-02-13T03:42:17;3.03;;;2.90;;
19278;SDS011;9773;47.062;15.446;2023-02-13T03:44:59;2.60;;;2.40;;
19278;SDS011;9773;47.062;15.446;2023-02-13T03:47:52;3.17;;;2.80;;
19278;SDS011;9773;47.062;15.446;2023-02-13T03:50:21;3.07;;;2.70;;
19278;SDS011;9773;47.062;15.446;2023-02-13T03:55:41;2.93;;;2.73;;
19278;SDS011;9773;47.062;15.446;2023-02-13T03:58:30;2.70;;;2.50;;
19278;SDS011;9773;47.062;15.446;2023-02-13T04:01:20;2.83;;;2.63;;
19278;SDS011;9773;47.062;15.446;2023-02-13T04:06:46;2.80;;;2.60;;
19278;SDS011;9773;47.062;15.446;2023-02-13T04:09:22;2.93;;;2.63;;
19278;SDS011;9773;47.062;15.446;2023-02-13T04:12:01;3.83;;;2.80;;
19278;SDS011;9773;47.062;15.446;2023-02-13T04:15:02;3.13;;;2.93;;
19278;SDS011;9773;47.062;15.446;2023-02-13T04:17:37;3.00;;;2.70;;
19278;SDS011;9773;47.062;15.446;2023-02-13T04:20:07;3.13;;;2.83;;
19278;SDS011;9773;47.062;15.446;2023-02-13T04:22:33;3.33;;;3.10;;
19278;SDS011;9773;47.062;15.446;2023-02-13T04:25:05;3.30;;;3.07;;
19278;SDS011;9773;47.062;15.446;2023-02-13T04:27:31;5.80;;;4.03;;
19278;SDS011;9773;47.062;15.446;2023-02-13T04:29:57;4.87;;;3.70;;
19278;SDS011;9773;47.062;15.446;2023-02-13T04:32:23;3.80;;;3.40;;
19278;SDS011;9773;47.062;15.446;2023-02-13T04:34:49;3.60;;;3.30;;
19278;SDS011;9773;47.062;15.446;2023-02-13T04:37:14;2.90;;;2.70;;
19278;SDS011;9773;47.062;15.446;2023-02-13T04:39:40;4.60;;;3.10;;
19278;SDS011;9773;47.062;15.446;2023-02-13T04:42:06;3.73;;;3.07;;
19278;SDS011;9773;47.062;15.446;2023-02-13T04:44:31;3.10;;;2.87;;
19278;SDS011;9773;47.062;15.446;2023-02-13T04:46:57;5.20;;;3.00;;
19278;SDS011;9773;47.062;15.446;2023-02-13T04:49:23;3.30;;;2.90;;
19278;SDS011;9773;47.062;15.446;2023-02-13T04:51:49;6.43;;;3.83;;
19278;SDS011;9773;47.062;15.446;2023-02-13T04:54:14;3.17;;;2.87;;
19278;SDS011;9773;47.062;15.446;2023-02-13T04:56:40;4.27;;;3.10;;
19278;SDS011;9773;47.062;15.446;2023-02-13T04:59:06;5.53;;;2.83;;
19278;SDS011;9773;47.062;15.446;2023-02-13T05:01:31;3.67;;;3.30;;
19278;SDS011;9773;47.062;15.446;2023-02-13T05:03:57;2.93;;;2.73;;
19278;SDS011;9773;47.062;15.446;2023-02-13T05:06:23;3.00;;;2.80;;
19278;SDS011;9773;47.062;15.446;2023-02-13T05:08:49;3.23;;;2.97;;
19278;SDS011;9773;47.062;15.446;2023-02-13T05:11:14;3.37;;;3.07;;
19278;SDS011;9773;47.062;15.446;2023-02-13T05:13:40;3.00;;;2.80;;
19278;SDS011;9773;47.062;15.446;2023-02-13T05:16:06;5.03;;;3.20;;
19278;SDS011;9773;47.062;15.446;2023-02-13T05:18:31;3.37;;;2.90;;
19278;SDS011;9773;47.062;15.446;2023-02-13T05:20:57;4.37;;;3.60;;
19278;SDS011;9773;47.062;15.446;2023-02-13T05:23:41;3.37;;;3.07;;
19278;SDS011;9773;47.062;15.446;2023-02-13T05:26:07;4.07;;;2.87;;
19278;SDS011;9773;47.062;15.446;2023-02-13T05:28:33;3.50;;;3.13;;
19278;SDS011;9773;47.062;15.446;2023-02-13T05:31:17;3.30;;;3.00;;
19278;SDS011;9773;47.062;15.446;2023-02-13T05:33:43;3.37;;;3.17;;
19278;SDS011;9773;47.062;15.446;2023-02-13T05:36:08;4.20;;;3.20;;
19278;SDS011;9773;47.062;15.446;2023-02-13T05:38:34;2.90;;;2.70;;
19278;SDS011;9773;47.062;15.446;2023-02-13T05:41:00;4.83;;;3.47;;
19278;SDS011;9773;47.062;15.446;2023-02-13T05:43:26;3.50;;;3.07;;
19278;SDS011;9773;47.062;15.446;2023-02-13T05:46:00;3.33;;;3.03;;
19278;SDS011;9773;47.062;15.446;2023-02-13T05:48:27;3.37;;;3.07;;
19278;SDS011;9773;47.062;15.446;2023-02-13T05:50:52;3.53;;;2.97;;
19278;SDS011;9773;47.062;15.446;2023-02-13T05:53:18;4.23;;;3.83;;
19278;SDS011;9773;47.062;15.446;2023-02-13T05:55:44;3.20;;;3.00;;
19278;SDS011;9773;47.062;15.446;2023-02-13T05:58:11;3.60;;;3.30;;
19278;SDS011;9773;47.062;15.446;2023-02-13T06:00:37;5.43;;;3.20;;
19278;SDS011;9773;47.062;15.446;2023-02-13T06:03:02;3.43;;;3.17;;
19278;SDS011;9773;47.062;15.446;2023-02-13T06:05:28;3.67;;;3.37;;
19278;SDS011;9773;47.062;15.446;2023-02-13T06:07:54;4.23;;;3.53;;
19278;SDS011;9773;47.062;15.446;2023-02-13T06:10:20;4.23;;;3.83;;
19278;SDS011;9773;47.062;15.446;2023-02-13T06:12:45;5.00;;;3.67;;
19278;SDS011;9773;47.062;15.446;2023-02-13T06:15:11;3.73;;;3.43;;
19278;SDS011;9773;47.062;15.446;2023-02-13T06:17:37;5.20;;;3.53;;
19278;SDS011;9773;47.062;15.446;2023-02-13T06:20:03;8.23;;;3.87;;
19278;SDS011;9773;47.062;15.446;2023-02-13T06:22:30;4.43;;;4.00;;
19278;SDS011;9773;47.062;15.446;2023-02-13T06:24:55;7.77;;;4.13;;
19278;SDS011;9773;47.062;15.446;2023-02-13T06:27:21;8.70;;;6.97;;
19278;SDS011;9773;47.062;15.446;2023-02-13T06:29:47;9.63;;;7.30;;
19278;SDS011;9773;47.062;15.446;2023-02-13T06:32:12;10.70;;;5.83;;
19278;SDS011;9773;47.062;15.446;2023-02-13T06:34:38;7.20;;;4.93;;
19278;SDS011;9773;47.062;15.446;2023-02-13T06:37:04;7.23;;;5.00;;
19278;SDS011;9773;47.062;15.446;2023-02-13T06:39:30;7.57;;;5.13;;
19278;SDS011;9773;47.062;15.446;2023-02-13T06:41:55;7.57;;;4.73;;
19278;SDS011;9773;47.062;15.446;2023-02-13T06:44:21;7.07;;;4.67;;
19278;SDS011;9773;47.062;15.446;2023-02-13T06:46:47;5.43;;;4.57;;
19278;SDS011;9773;47.062;15.446;2023-02-13T06:49:12;9.10;;;5.50;;
19278;SDS011;9773;47.062;15.446;2023-02-13T06:51:38;9.97;;;5.07;;
19278;SDS011;9773;47.062;15.446;2023-02-13T06:54:04;6.60;;;5.70;;
19278;SDS011;9773;47.062;15.446;2023-02-13T06:56:30;6.93;;;5.10;;
19278;SDS011;9773;47.062;15.446;2023-02-13T06:58:56;7.03;;;5.30;;
19278;SDS011;9773;47.062;15.446;2023-02-13T07:01:22;6.50;;;5.13;;
19278;SDS011;9773;47.062;15.446;2023-02-13T07:03:48;8.20;;;5.70;;
19278;SDS011;9773;47.062;15.446;2023-02-13T07:06:20;9.97;;;5.97;;
19278;SDS011;9773;47.062;15.446;2023-02-13T07:08:46;5.90;;;4.87;;
19278;SDS011;9773;47.062;15.446;2023-02-13T07:11:18;9.27;;;5.30;;
19278;SDS011;9773;47.062;15.446;2023-02-13T07:13:45;10.20;;;5.80;;
19278;SDS011;9773;47.062;15.446;2023-02-13T07:16:10;7.33;;;5.60;;
19278;SDS011;9773;47.062;15.446;2023-02-13T07:18:36;10.97;;;5.63;;
19278;SDS011;9773;47.062;15.446;2023-02-13T07:21:02;8.97;;;6.33;;
19278;SDS011;9773;47.062;15.446;2023-02-13T07:23:28;8.63;;;6.30;;
19278;SDS011;9773;47.062;15.446;2023-02-13T07:25:54;9.70;;;6.27;;
19278;SDS011;9773;47.062;15.446;2023-02-13T07:28:23;7.27;;;6.30;;
19278;SDS011;9773;47.062;15.446;2023-02-13T07:30:49;9.30;;;6.23;;
19278;SDS011;9773;47.062;15.446;2023-02-13T07:33:15;9.73;;;6.93;;
19278;SDS011;9773;47.062;15.446;2023-02-13T07:35:50;9.23;;;6.77;;
19278;SDS011;9773;47.062;15.446;2023-02-13T07:38:17;9.40;;;6.37;;
19278;SDS011;9773;47.062;15.446;2023-02-13T07:40:43;10.50;;;7.17;;
19278;SDS011;9773;47.062;15.446;2023-02-13T07:43:09;8.67;;;6.80;;
19278;SDS011;9773;47.062;15.446;2023-02-13T07:45:36;11.63;;;7.63;;
19278;SDS011;9773;47.062;15.446;2023-02-13T07:48:01;14.50;;;7.87;;
19278;SDS011;9773;47.062;15.446;2023-02-13T07:50:27;13.67;;;7.80;;
19278;SDS011;9773;47.062;15.446;2023-02-13T07:52:54;11.33;;;7.57;;
19278;SDS011;9773;47.062;15.446;2023-02-13T07:55:20;14.37;;;7.73;;
19278;SDS011;9773;47.062;15.446;2023-02-13T07:57:46;15.37;;;8.80;;
19278;SDS011;9773;47.062;15.446;2023-02-13T08:00:13;12.93;;;7.97;;
19278;SDS011;9773;47.062;15.446;2023-02-13T08:02:39;11.97;;;7.57;;
19278;SDS011;9773;47.062;15.446;2023-02-13T08:05:05;9.70;;;6.70;;
19278;SDS011;9773;47.062;15.446;2023-02-13T08:07:31;9.47;;;4.93;;
19278;SDS011;9773;47.062;15.446;2023-02-13T08:09:57;10.37;;;5.10;;
19278;SDS011;9773;47.062;15.446;2023-02-13T08:12:42;6.77;;;4.53;;
19278;SDS011;9773;47.062;15.446;2023-02-13T08:15:11;6.53;;;4.57;;
19278;SDS011;9773;47.062;15.446;2023-02-13T08:17:38;5.70;;;4.10;;
19278;SDS011;9773;47.062;15.446;2023-02-13T08:20:04;6.70;;;4.80;;
19278;SDS011;9773;47.062;15.446;2023-02-13T08:22:32;4.60;;;4.00;;
19278;SDS011;9773;47.062;15.446;2023-02-13T08:24:58;6.23;;;4.43;;
19278;SDS011;9773;47.062;15.446;2023-02-13T08:27:24;6.03;;;4.30;;
19278;SDS011;9773;47.062;15.446;2023-02-13T08:29:52;3.33;;;3.13;;
19278;SDS011;9773;47.062;15.446;2023-02-13T08:32:17;4.00;;;3.60;;
19278;SDS011;9773;47.062;15.446;2023-02-13T08:34:44;8.73;;;4.27;;
19278;SDS011;9773;47.062;15.446;2023-02-13T08:37:09;3.97;;;3.67;;
19278;SDS011;9773;47.062;15.446;2023-02-13T08:39:35;3.63;;;3.33;;
19278;SDS011;9773;47.062;15.446;2023-02-13T08:42:01;4.17;;;3.57;;
19278;SDS011;9773;47.062;15.446;2023-02-13T08:44:27;4.00;;;3.63;;
19278;SDS011;9773;47.062;15.446;2023-02-13T08:46:53;6.17;;;4.00;;
19278;SDS011;9773;47.062;15.446;2023-02-13T08:49:18;4.57;;;4.00;;
19278;SDS011;9773;47.062;15.446;2023-02-13T08:51:44;5.00;;;3.80;;
19278;SDS011;9773;47.062;15.446;2023-02-13T08:54:10;4.10;;;3.63;;
19278;SDS011;9773;47.062;15.446;2023-02-13T08:56:36;3.93;;;3.53;;
19278;SDS011;9773;47.062;15.446;2023-02-13T08:59:01;5.23;;;3.90;;
19278;SDS011;9773;47.062;15.446;2023-02-13T09:01:27;5.83;;;4.13;;
19278;SDS011;9773;47.062;15.446;2023-02-13T09:03:53;5.73;;;3.67;;
19278;SDS011;9773;47.062;15.446;2023-02-13T09:06:19;4.53;;;3.93;;
19278;SDS011;9773;47.062;15.446;2023-02-13T09:08:45;5.83;;;3.40;;
19278;SDS011;9773;47.062;15.446;2023-02-13T09:11:11;4.20;;;3.90;;
19278;SDS011;9773;47.062;15.446;2023-02-13T09:13:37;4.33;;;3.77;;
19278;SDS011;9773;47.062;15.446;2023-02-13T09:16:04;4.33;;;4.03;;
19278;SDS011;9773;47.062;15.446;2023-02-13T09:18:31;6.30;;;4.63;;
19278;SDS011;9773;47.062;15.446;2023-02-13T09:21:01;9.00;;;6.20;;
19278;SDS011;9773;47.062;15.446;2023-02-13T09:23:29;7.17;;;5.53;;
19278;SDS011;9773;47.062;15.446;2023-02-13T09:25:59;8.07;;;5.90;;
19278;SDS011;9773;47.062;15.446;2023-02-13T09:28:26;7.17;;;5.70;;
19278;SDS011;9773;47.062;15.446;2023-02-13T09:30:56;5.77;;;5.03;;
19278;SDS011;9773;47.062;15.446;2023-02-13T09:33:22;7.43;;;5.20;;
19278;SDS011;9773;47.062;15.446;2023-02-13T09:35:49;7.03;;;5.00;;
19278;SDS011;9773;47.062;15.446;2023-02-13T09:38:15;7.10;;;5.17;;
19278;SDS011;9773;47.062;15.446;2023-02-13T09:40:46;7.13;;;5.67;;
19278;SDS011;9773;47.062;15.446;2023-02-13T09:46:01;7.30;;;5.97;;
19278;SDS011;9773;47.062;15.446;2023-02-13T09:48:35;11.63;;;6.53;;
19278;SDS011;9773;47.062;15.446;2023-02-13T09:51:04;9.50;;;6.30;;
19278;SDS011;9773;47.062;15.446;2023-02-13T09:53:30;7.73;;;6.27;;
19278;SDS011;9773;47.062;15.446;2023-02-13T09:56:12;7.73;;;6.37;;
19278;SDS011;9773;47.062;15.446;2023-02-13T09:58:42;9.73;;;7.07;;
19278;SDS011;9773;47.062;15.446;2023-02-13T10:01:16;8.93;;;6.13;;
19278;SDS011;9773;47.062;15.446;2023-02-13T10:17:56;7.03;;;5.90;;
19278;SDS011;9773;47.062;15.446;2023-02-13T10:20:34;9.97;;;5.60;;
19278;SDS011;9773;47.062;15.446;2023-02-13T10:23:18;7.03;;;5.20;;
19278;SDS011;9773;47.062;15.446;2023-02-13T10:29:03;7.50;;;5.67;;
19278;SDS011;9773;47.062;15.446;2023-02-13T10:31:40;6.30;;;5.07;;
19278;SDS011;9773;47.062;15.446;2023-02-13T10:34:13;5.73;;;5.23;;
19278;SDS011;9773;47.062;15.446;2023-02-13T10:36:43;4.90;;;4.23;;
19278;SDS011;9773;47.062;15.446;2023-02-13T10:41:53;5.83;;;4.87;;
19278;SDS011;9773;47.062;15.446;2023-02-13T10:53:00;7.50;;;5.07;;
19278;SDS011;9773;47.062;15.446;2023-02-13T11:00:41;7.93;;;4.50;;
19278;SDS011;9773;47.062;15.446;2023-02-13T11:03:23;4.90;;;4.50;;
19278;SDS011;9773;47.062;15.446;2023-02-13T11:05:51;5.47;;;4.67;;
19278;SDS011;9773;47.062;15.446;2023-02-13T11:08:22;4.97;;;4.50;;
19278;SDS011;9773;47.062;15.446;2023-02-13T11:10:57;8.17;;;4.83;;
19278;SDS011;9773;47.062;15.446;2023-02-13T11:13:26;5.33;;;4.83;;
19278;SDS011;9773;47.062;15.446;2023-02-13T11:18:38;5.30;;;4.70;;
19278;SDS011;9773;47.062;15.446;2023-02-13T11:21:09;6.27;;;4.87;;
19278;SDS011;9773;47.062;15.446;2023-02-13T11:23:45;7.20;;;4.80;;
19278;SDS011;9773;47.062;15.446;2023-02-13T11:26:22;5.20;;;4.70;;
19278;SDS011;9773;47.062;15.446;2023-02-13T11:28:54;5.90;;;4.70;;
19278;SDS011;9773;47.062;15.446;2023-02-13T11:33:49;7.27;;;5.70;;
19278;SDS011;9773;47.062;15.446;2023-02-13T11:36:21;7.50;;;5.10;;
19278;SDS011;9773;47.062;15.446;2023-02-13T11:38:59;5.97;;;4.97;;
19278;SDS011;9773;47.062;15.446;2023-02-13T11:41:30;4.47;;;4.07;;
19278;SDS011;9773;47.062;15.446;2023-02-13T11:44:17;6.60;;;4.17;;
19278;SDS011;9773;47.062;15.446;2023-02-13T11:46:51;5.10;;;4.60;;
19278;SDS011;9773;47.062;15.446;2023-02-13T11:49:21;4.93;;;4.53;;
19278;SDS011;9773;47.062;15.446;2023-02-13T11:51:52;5.47;;;4.40;;
19278;SDS011;9773;47.062;15.446;2023-02-13T11:56:52;4.80;;;4.10;;
19278;SDS011;9773;47.062;15.446;2023-02-13T11:59:23;6.30;;;5.70;;
19278;SDS011;9773;47.062;15.446;2023-02-13T12:02:00;7.60;;;5.70;;
19278;SDS011;9773;47.062;15.446;2023-02-13T12:04:27;4.67;;;4.27;;
19278;SDS011;9773;47.062;15.446;2023-02-13T12:07:00;4.80;;;4.30;;
19278;SDS011;9773;47.062;15.446;2023-02-13T12:09:27;5.03;;;4.57;;
19278;SDS011;9773;47.062;15.446;2023-02-13T12:11:54;4.30;;;3.90;;
19278;SDS011;9773;47.062;15.446;2023-02-13T12:14:27;4.43;;;4.03;;
19278;SDS011;9773;47.062;15.446;2023-02-13T12:19:38;4.40;;;4.00;;
19278;SDS011;9773;47.062;15.446;2023-02-13T12:27:49;5.90;;;4.30;;
19278;SDS011;9773;47.062;15.446;2023-02-13T12:33:19;4.50;;;4.10;;
19278;SDS011;9773;47.062;15.446;2023-02-13T12:41:27;4.23;;;3.93;;
19278;SDS011;9773;47.062;15.446;2023-02-13T12:44:29;5.70;;;4.73;;
19278;SDS011;9773;47.062;15.446;2023-02-13T12:47:18;4.37;;;3.97;;
19278;SDS011;9773;47.062;15.446;2023-02-13T12:52:39;4.50;;;4.10;;
19278;SDS011;9773;47.062;15.446;2023-02-13T12:58:05;4.07;;;3.70;;
19278;SDS011;9773;47.062;15.446;2023-02-13T13:00:53;4.23;;;3.83;;
19278;SDS011;9773;47.062;15.446;2023-02-13T13:06:17;5.80;;;4.13;;
19278;SDS011;9773;47.062;15.446;2023-02-13T13:09:03;7.03;;;4.50;;
19278;SDS011;9773;47.062;15.446;2023-02-13T13:28:46;4.50;;;4.10;;
19278;SDS011;9773;47.062;15.446;2023-02-13T13:31:16;4.90;;;4.40;;
19278;SDS011;9773;47.062;15.446;2023-02-13T13:33:43;4.77;;;4.10;;
19278;SDS011;9773;47.062;15.446;2023-02-13T13:38:49;4.23;;;3.80;;
19278;SDS011;9773;47.062;15.446;2023-02-13T13:47:00;5.27;;;4.77;;
19278;SDS011;9773;47.062;15.446;2023-02-13T13:54:44;5.83;;;4.63;;
19278;SDS011;9773;47.062;15.446;2023-02-13T13:57:15;4.30;;;3.90;;
19278;SDS011;9773;47.062;15.446;2023-02-13T14:05:01;4.83;;;4.37;;
19278;SDS011;9773;47.062;15.446;2023-02-13T14:07:42;4.93;;;4.50;;
19278;SDS011;9773;47.062;15.446;2023-02-13T14:20:39;4.77;;;4.17;;
19278;SDS011;9773;47.062;15.446;2023-02-13T14:29:25;5.40;;;4.50;;
19278;SDS011;9773;47.062;15.446;2023-02-13T14:31:53;4.90;;;4.00;;
19278;SDS011;9773;47.062;15.446;2023-02-13T14:34:22;5.10;;;4.60;;
19278;SDS011;9773;47.062;15.446;2023-02-13T14:43:05;4.67;;;4.27;;
19278;SDS011;9773;47.062;15.446;2023-02-13T14:45:53;5.23;;;4.70;;
19278;SDS011;9773;47.062;15.446;2023-02-13T14:48:26;6.27;;;4.90;;
19278;SDS011;9773;47.062;15.446;2023-02-13T14:51:02;5.03;;;4.40;;
19278;SDS011;9773;47.062;15.446;2023-02-13T14:53:30;7.37;;;4.50;;
19278;SDS011;9773;47.062;15.446;2023-02-13T14:56:10;5.00;;;3.73;;
19278;SDS011;9773;47.062;15.446;2023-02-13T14:58:43;4.70;;;4.27;;
19278;SDS011;9773;47.062;15.446;2023-02-13T15:01:34;6.53;;;5.17;;
19278;SDS011;9773;47.062;15.446;2023-02-13T15:04:16;5.00;;;4.30;;
19278;SDS011;9773;47.062;15.446;2023-02-13T15:06:53;5.00;;;4.30;;
19278;SDS011;9773;47.062;15.446;2023-02-13T15:09:34;5.53;;;4.20;;
19278;SDS011;9773;47.062;15.446;2023-02-13T15:12:24;4.67;;;4.27;;
19278;SDS011;9773;47.062;15.446;2023-02-13T15:15:01;4.67;;;4.27;;
19278;SDS011;9773;47.062;15.446;2023-02-13T15:17:41;4.73;;;4.23;;
19278;SDS011;9773;47.062;15.446;2023-02-13T15:22:40;7.70;;;4.60;;
19278;SDS011;9773;47.062;15.446;2023-02-13T15:28:05;5.93;;;4.07;;
19278;SDS011;9773;47.062;15.446;2023-02-13T15:30:36;5.30;;;4.43;;
19278;SDS011;9773;47.062;15.446;2023-02-13T15:33:24;4.60;;;4.10;;
19278;SDS011;9773;47.062;15.446;2023-02-13T15:35:54;4.57;;;4.00;;
19278;SDS011;9773;47.062;15.446;2023-02-13T15:38:29;5.83;;;4.60;;
19278;SDS011;9773;47.062;15.446;2023-02-13T15:41:00;7.20;;;4.93;;
19278;SDS011;9773;47.062;15.446;2023-02-13T15:43:48;4.80;;;4.30;;
19278;SDS011;9773;47.062;15.446;2023-02-13T15:48:51;6.63;;;5.77;;
19278;SDS011;9773;47.062;15.446;2023-02-13T15:51:24;5.60;;;4.70;;
19278;SDS011;9773;47.062;15.446;2023-02-13T15:53:52;5.13;;;4.60;;
19278;SDS011;9773;47.062;15.446;2023-02-13T15:56:23;6.37;;;4.60;;
19278;SDS011;9773;47.062;15.446;2023-02-13T15:58:50;7.07;;;4.40;;
19278;SDS011;9773;47.062;15.446;2023-02-13T16:01:18;5.57;;;4.93;;
19278;SDS011;9773;47.062;15.446;2023-02-13T16:03:46;11.37;;;6.17;;
19278;SDS011;9773;47.062;15.446;2023-02-13T16:06:19;8.37;;;5.67;;
19278;SDS011;9773;47.062;15.446;2023-02-13T16:08:51;8.13;;;4.70;;
19278;SDS011;9773;47.062;15.446;2023-02-13T16:11:39;8.53;;;6.70;;
19278;SDS011;9773;47.062;15.446;2023-02-13T16:14:16;7.83;;;5.30;;
19278;SDS011;9773;47.062;15.446;2023-02-13T16:16:53;5.60;;;5.07;;
19278;SDS011;9773;47.062;15.446;2023-02-13T16:19:21;6.07;;;5.13;;
19278;SDS011;9773;47.062;15.446;2023-02-13T16:21:48;6.93;;;4.90;;
19278;SDS011;9773;47.062;15.446;2023-02-13T16:24:14;6.27;;;5.17;;
19278;SDS011;9773;47.062;15.446;2023-02-13T16:26:41;8.37;;;5.77;;
19278;SDS011;9773;47.062;15.446;2023-02-13T16:29:15;19.27;;;13.43;;
19278;SDS011;9773;47.062;15.446;2023-02-13T16:31:48;12.37;;;8.67;;
19278;SDS011;9773;47.062;15.446;2023-02-13T16:34:24;13.67;;;7.53;;
19278;SDS011;9773;47.062;15.446;2023-02-13T16:36:52;9.10;;;7.07;;
19278;SDS011;9773;47.062;15.446;2023-02-13T16:39:26;14.33;;;8.43;;
19278;SDS011;9773;47.062;15.446;2023-02-13T16:41:56;13.03;;;9.57;;
19278;SDS011;9773;47.062;15.446;2023-02-13T16:44:26;13.53;;;8.43;;
19278;SDS011;9773;47.062;15.446;2023-02-13T16:49:21;10.93;;;7.10;;
19278;SDS011;9773;47.062;15.446;2023-02-13T16:51:57;9.03;;;5.40;;
19278;SDS011;9773;47.062;15.446;2023-02-13T17:02:45;8.70;;;5.90;;
19278;SDS011;9773;47.062;15.446;2023-02-13T17:07:46;12.83;;;6.87;;
19278;SDS011;9773;47.062;15.446;2023-02-13T17:12:52;11.37;;;8.07;;
19278;SDS011;9773;47.062;15.446;2023-02-13T17:15:25;19.87;;;10.93;;
19278;SDS011;9773;47.062;15.446;2023-02-13T17:17:53;6.90;;;6.20;;
19278;SDS011;9773;47.062;15.446;2023-02-13T17:20:23;8.97;;;5.97;;
19278;SDS011;9773;47.062;15.446;2023-02-13T17:22:56;6.70;;;5.50;;
19278;SDS011;9773;47.062;15.446;2023-02-13T17:25:24;8.03;;;6.17;;
19278;SDS011;9773;47.062;15.446;2023-02-13T17:27:55;7.17;;;5.83;;
19278;SDS011;9773;47.062;15.446;2023-02-13T17:30:27;8.10;;;5.73;;
19278;SDS011;9773;47.062;15.446;2023-02-13T17:33:00;6.60;;;5.90;;
19278;SDS011;9773;47.062;15.446;2023-02-13T17:35:31;6.90;;;5.40;;
19278;SDS011;9773;47.062;15.446;2023-02-13T17:37:57;6.63;;;5.50;;
19278;SDS011;9773;47.062;15.446;2023-02-13T17:40:28;8.67;;;6.10;;
19278;SDS011;9773;47.062;15.446;2023-02-13T17:42:57;10.23;;;6.57;;
19278;SDS011;9773;47.062;15.446;2023-02-13T17:45:30;7.20;;;5.70;;
19278;SDS011;9773;47.062;15.446;2023-02-13T17:47:59;9.30;;;5.80;;
19278;SDS011;9773;47.062;15.446;2023-02-13T17:50:27;13.10;;;7.00;;
19278;SDS011;9773;47.062;15.446;2023-02-13T17:52:55;8.57;;;5.97;;
19278;SDS011;9773;47.062;15.446;2023-02-13T17:55:26;10.10;;;5.83;;
19278;SDS011;9773;47.062;15.446;2023-02-13T17:57:54;7.90;;;5.80;;
19278;SDS011;9773;47.062;15.446;2023-02-13T18:00:22;7.87;;;5.53;;
19278;SDS011;9773;47.062;15.446;2023-02-13T18:02:57;8.33;;;5.87;;
19278;SDS011;9773;47.062;15.446;2023-02-13T18:05:25;8.23;;;6.37;;
19278;SDS011;9773;47.062;15.446;2023-02-13T18:07:52;8.30;;;5.87;;
19278;SDS011;9773;47.062;15.446;2023-02-13T18:10:20;9.27;;;6.20;;
19278;SDS011;9773;47.062;15.446;2023-02-13T18:12:51;9.40;;;6.70;;
19278;SDS011;9773;47.062;15.446;2023-02-13T18:15:19;9.57;;;6.50;;
19278;SDS011;9773;47.062;15.446;2023-02-13T18:17:46;9.77;;;6.40;;
19278;SDS011;9773;47.062;15.446;2023-02-13T18:20:14;11.97;;;6.17;;
19278;SDS011;9773;47.062;15.446;2023-02-13T18:22:44;11.57;;;6.30;;
19278;SDS011;9773;47.062;15.446;2023-02-13T18:25:17;11.83;;;6.83;;
19278;SDS011;9773;47.062;15.446;2023-02-13T18:27:45;10.00;;;7.00;;
19278;SDS011;9773;47.062;15.446;2023-02-13T18:30:12;9.97;;;6.73;;